createdAt,value
2018-05-08T00:01:51.207Z,36.80
2018-05-08T00:03:54.156Z,36.80
2018-05-08T00:05:57.069Z,36.80
2018-05-08T00:07:59.998Z,36.90
2018-05-08T00:10:02.907Z,36.90
2018-05-08T00:12:05.812Z,36.90
2018-05-08T00:14:08.750Z,36.80
2018-05-08T00:16:11.656Z,36.90
2018-05-08T00:18:14.696Z,36.90
2018-05-08T00:20:18.368Z,36.90
2018-05-08T00:22:21.303Z,36.80
2018-05-08T00:24:24.211Z,36.80
2018-05-08T00:26:27.238Z,36.80
2018-05-08T00:28:31.041Z,36.80
2018-05-08T00:30:34.720Z,36.70
2018-05-08T00:32:37.825Z,36.70
2018-05-08T00:34:41.504Z,36.80
2018-05-08T00:36:44.508Z,36.70
2018-05-08T00:38:48.326Z,37.40
2018-05-08T00:40:51.236Z,36.70
2018-05-08T00:42:54.143Z,36.70
2018-05-08T00:44:57.077Z,36.70
2018-05-08T00:47:00.001Z,36.70
2018-05-08T00:49:02.908Z,36.70
2018-05-08T00:51:05.823Z,36.70
2018-05-08T00:53:08.733Z,36.60
2018-05-08T00:55:11.663Z,36.60
2018-05-08T00:57:15.363Z,36.70
2018-05-08T00:59:19.026Z,36.60
2018-05-08T01:01:21.956Z,36.60
2018-05-08T01:03:24.875Z,36.50
2018-05-08T01:05:27.801Z,36.40
2018-05-08T01:07:31.482Z,36.50
2018-05-08T01:09:34.494Z,36.40
2018-05-08T01:11:38.331Z,36.40
2018-05-08T01:13:41.215Z,36.30
2018-05-08T01:15:44.135Z,36.30
2018-05-08T01:17:47.163Z,36.30
2018-05-08T01:19:50.092Z,36.30
2018-05-08T01:21:53.021Z,36.30
2018-05-08T01:23:55.948Z,36.30
2018-05-08T01:25:58.877Z,36.30
2018-05-08T01:28:01.788Z,36.30
2018-05-08T01:30:04.704Z,36.30
2018-05-08T01:32:07.642Z,36.20
2018-05-08T01:34:10.572Z,36.20
2018-05-08T01:36:14.272Z,36.90
2018-05-08T01:38:17.953Z,36.20
2018-05-08T01:40:20.886Z,36.20
2018-05-08T01:42:23.813Z,36.20
2018-05-08T01:44:26.723Z,36.20
2018-05-08T01:46:30.424Z,36.10
2018-05-08T01:48:34.105Z,36.00
2018-05-08T01:50:37.037Z,36.00
2018-05-08T01:52:56.042Z,36.10
2018-05-08T01:54:58.966Z,36.00
2018-05-08T01:57:02.865Z,35.90
2018-05-08T01:59:06.564Z,35.80
2018-05-08T02:01:10.233Z,35.80
2018-05-08T02:03:13.243Z,35.80
2018-05-08T02:05:16.235Z,35.70
2018-05-08T02:07:19.173Z,35.70
2018-05-08T02:09:22.195Z,35.70
2018-05-08T02:11:25.901Z,35.80
2018-05-08T02:13:29.572Z,35.60
2018-05-08T02:15:34.314Z,35.50
2018-05-08T02:17:37.994Z,35.60
2018-05-08T02:19:40.917Z,35.50
2018-05-08T02:21:44.098Z,35.60
2018-05-08T02:23:47.017Z,35.60
2018-05-08T02:25:49.987Z,35.60
2018-05-08T02:27:53.049Z,35.50
2018-05-08T02:29:55.965Z,35.50
2018-05-08T02:31:58.898Z,35.50
2018-05-08T02:34:03.127Z,35.50
2018-05-08T02:36:06.037Z,35.50
2018-05-08T02:38:08.935Z,35.50
2018-05-08T02:40:11.871Z,35.50
2018-05-08T02:42:15.554Z,35.30
2018-05-08T02:44:18.745Z,35.30
2018-05-08T02:46:22.549Z,35.40
2018-05-08T02:48:26.262Z,35.40
2018-05-08T02:50:29.173Z,35.40
2018-05-08T02:52:32.143Z,35.40
2018-05-08T02:54:35.049Z,35.40
2018-05-08T02:56:37.961Z,35.40
2018-05-08T02:58:41.785Z,35.50
2018-05-08T03:00:45.461Z,35.50
2018-05-08T03:02:48.373Z,35.40
2018-05-08T03:04:51.339Z,35.50
2018-05-08T03:06:55.006Z,35.60
2018-05-08T03:08:58.022Z,35.40
2018-05-08T03:11:01.828Z,35.60
2018-05-08T03:13:05.493Z,35.70
2018-05-08T03:15:08.505Z,35.60
2018-05-08T03:17:12.308Z,35.70
2018-05-08T03:19:16.003Z,35.70
2018-05-08T03:21:19.675Z,35.60
2018-05-08T03:23:22.618Z,35.60
2018-05-08T03:25:25.529Z,35.60
2018-05-08T03:27:28.618Z,35.70
2018-05-08T03:29:33.090Z,35.80
2018-05-08T03:31:36.005Z,35.70
2018-05-08T03:33:39.037Z,35.80
2018-05-08T03:35:43.051Z,35.90
2018-05-08T03:37:47.767Z,36.00
2018-05-08T03:39:51.446Z,36.00
2018-05-08T03:41:54.665Z,36.60
2018-05-08T03:43:57.586Z,36.00
2018-05-08T03:46:00.494Z,36.10
2018-05-08T03:48:03.817Z,36.40
2018-05-08T03:50:07.518Z,36.50
2018-05-08T03:52:10.436Z,36.50
2018-05-08T03:54:13.397Z,36.70
2018-05-08T03:56:16.297Z,36.80
2018-05-08T03:58:19.217Z,37.00
2018-05-08T04:00:35.738Z,37.40
2018-05-08T04:02:51.230Z,37.40
2018-05-08T04:05:06.021Z,37.40
2018-05-08T04:07:20.921Z,37.30
2018-05-08T04:09:23.897Z,37.40
2018-05-08T04:11:26.809Z,37.40
2018-05-08T04:13:29.845Z,37.40
2018-05-08T04:15:32.917Z,37.70
2018-05-08T04:17:35.811Z,37.90
2018-05-08T04:19:39.141Z,38.00
2018-05-08T04:21:42.809Z,38.50
2018-05-08T04:23:45.721Z,38.40
2018-05-08T04:25:49.524Z,39.40
2018-05-08T04:27:53.197Z,39.10
2018-05-08T04:29:56.158Z,39.00
2018-05-08T04:31:59.413Z,39.20
2018-05-08T04:34:02.344Z,39.30
2018-05-08T04:36:05.360Z,39.50
2018-05-08T04:38:09.166Z,39.90
2018-05-08T04:40:12.833Z,40.10
2018-05-08T04:42:15.846Z,40.00
2018-05-08T04:44:19.677Z,40.50
2018-05-08T04:46:22.581Z,40.50
2018-05-08T04:48:25.501Z,40.50
2018-05-08T04:50:28.824Z,40.60
2018-05-08T04:52:31.784Z,40.60
2018-05-08T04:54:35.478Z,40.80
2018-05-08T04:56:39.389Z,40.90
2018-05-08T04:58:43.072Z,40.90
2018-05-08T05:00:46.764Z,41.20
2018-05-08T05:02:49.738Z,40.80
2018-05-08T05:04:52.888Z,41.00
2018-05-08T05:06:55.908Z,41.20
2018-05-08T05:08:58.825Z,41.30
2018-05-08T05:11:02.517Z,41.60
2018-05-08T05:13:06.198Z,41.80
2018-05-08T05:15:10.845Z,42.00
2018-05-08T05:17:13.753Z,42.00
2018-05-08T05:19:16.656Z,41.40
2018-05-08T05:21:19.685Z,42.00
2018-05-08T05:23:22.677Z,42.00
2018-05-08T05:25:26.352Z,42.20
2018-05-08T05:27:29.290Z,42.10
2018-05-08T05:29:32.450Z,42.80
2018-05-08T05:31:35.578Z,42.00
2018-05-08T05:33:39.052Z,41.90
2018-05-08T05:35:42.800Z,42.10
2018-05-08T05:37:45.809Z,42.00
2018-05-08T05:39:49.508Z,41.80
2018-05-08T05:41:53.182Z,41.90
2018-05-08T05:43:56.110Z,41.80
2018-05-08T05:45:59.074Z,41.90
2018-05-08T05:48:02.761Z,42.30
2018-05-08T05:50:06.437Z,42.40
2018-05-08T05:52:09.385Z,42.30
2018-05-08T05:54:12.298Z,42.40
2018-05-08T05:56:15.318Z,42.50
2018-05-08T05:58:19.444Z,42.70
2018-05-08T06:00:22.366Z,42.70
2018-05-08T06:02:25.298Z,42.70
2018-05-08T06:04:29.001Z,42.70
2018-05-08T06:06:31.973Z,42.60
2018-05-08T06:08:34.956Z,42.70
2018-05-08T06:10:38.759Z,43.20
2018-05-08T06:12:42.428Z,43.00
2018-05-08T06:14:45.334Z,42.90
2018-05-08T06:16:49.043Z,42.90
2018-05-08T06:18:52.825Z,42.80
2018-05-08T06:20:56.505Z,42.90
2018-05-08T06:22:59.569Z,42.80
2018-05-08T06:25:02.483Z,42.90
2018-05-08T06:27:05.410Z,42.80
2018-05-08T06:29:08.481Z,42.70
2018-05-08T06:31:11.394Z,42.30
2018-05-08T06:33:14.302Z,41.90
2018-05-08T06:35:17.579Z,41.20
2018-05-08T06:37:20.461Z,40.90
2018-05-08T06:39:23.519Z,40.90
2018-05-08T06:41:26.458Z,40.80
2018-05-08T06:43:30.134Z,40.60
2018-05-08T06:45:33.065Z,40.50
2018-05-08T06:47:37.368Z,39.90
2018-05-08T06:49:41.037Z,39.90
2018-05-08T06:51:45.486Z,39.90
2018-05-08T06:53:49.492Z,40.00
2018-05-08T06:55:53.162Z,39.90
2018-05-08T06:57:56.138Z,39.90
2018-05-08T07:00:01.308Z,39.80
2018-05-08T07:02:04.987Z,39.70
2018-05-08T07:04:09.407Z,39.70
2018-05-08T07:06:13.958Z,39.70
2018-05-08T07:08:16.873Z,39.70
2018-05-08T07:10:19.794Z,39.70
2018-05-08T07:12:23.711Z,39.50
2018-05-08T07:14:27.378Z,39.50
2018-05-08T07:16:30.394Z,39.40
2018-05-08T07:18:34.401Z,39.40
2018-05-08T07:20:38.073Z,39.40
2018-05-08T07:22:41.089Z,39.20
2018-05-08T07:24:44.897Z,39.80
2018-05-08T07:26:47.806Z,39.70
2018-05-08T07:28:50.735Z,39.90
2018-05-08T07:30:54.571Z,39.90
2018-05-08T07:32:57.616Z,39.80
2018-05-08T07:35:00.533Z,39.60
2018-05-08T07:37:03.617Z,39.60
2018-05-08T07:39:06.534Z,39.40
2018-05-08T07:41:09.468Z,39.50
2018-05-08T07:43:13.166Z,39.20
2018-05-08T07:45:16.846Z,39.00
2018-05-08T07:47:19.852Z,38.90
2018-05-08T07:49:23.664Z,38.70
2018-05-08T07:51:26.577Z,38.60
2018-05-08T07:53:29.511Z,38.60
2018-05-08T07:55:33.306Z,38.40
2018-05-08T07:57:37.090Z,38.10
2018-05-08T07:59:40.702Z,38.20
2018-05-08T08:01:44.604Z,38.00
2018-05-08T08:03:47.513Z,38.00
2018-05-08T08:05:51.202Z,37.90
2018-05-08T08:07:54.913Z,37.90
2018-05-08T08:09:57.838Z,37.80
2018-05-08T08:12:00.822Z,37.70
2018-05-08T08:14:03.766Z,37.80
2018-05-08T08:16:06.681Z,37.50
2018-05-08T08:18:09.596Z,37.20
2018-05-08T08:20:14.253Z,36.50
2018-05-08T08:22:17.177Z,36.40
2018-05-08T08:24:20.103Z,36.40
2018-05-08T08:26:24.006Z,36.70
2018-05-08T08:28:27.803Z,36.70
2018-05-08T08:30:31.481Z,36.80
2018-05-08T08:32:35.410Z,36.70
2018-05-08T08:34:39.109Z,36.50
2018-05-08T08:36:42.777Z,36.70
2018-05-08T08:38:45.727Z,36.60
2018-05-08T08:40:48.676Z,36.60
2018-05-08T08:42:52.341Z,37.00
2018-05-08T08:44:55.314Z,36.90
2018-05-08T08:46:58.337Z,36.90
2018-05-08T08:49:02.018Z,36.90
2018-05-08T08:51:05.958Z,36.90
2018-05-08T08:53:08.870Z,36.80
2018-05-08T08:55:11.786Z,36.60
2018-05-08T08:57:16.238Z,36.60
2018-05-08T08:59:19.154Z,36.50
2018-05-08T09:01:22.062Z,36.40
2018-05-08T09:03:26.537Z,36.40
2018-05-08T09:05:29.456Z,36.30
2018-05-08T09:07:33.873Z,36.30
2018-05-08T09:09:37.091Z,36.20
2018-05-08T09:11:40.761Z,36.70
2018-05-08T09:13:43.682Z,36.60
2018-05-08T09:15:46.625Z,36.80
2018-05-08T09:19:53.805Z,36.90
2018-05-08T09:21:56.936Z,36.60
2018-05-08T09:24:00.633Z,36.50
2018-05-08T09:26:04.310Z,36.10
2018-05-08T09:28:07.250Z,36.10
2018-05-08T09:30:10.166Z,36.00
2018-05-08T09:32:13.058Z,35.80
2018-05-08T09:34:16.193Z,35.80
2018-05-08T09:36:19.109Z,36.10
2018-05-08T09:38:22.233Z,36.10
2018-05-08T09:40:25.946Z,35.90
2018-05-08T09:42:28.868Z,35.80
2018-05-08T09:44:31.814Z,35.90
2018-05-08T09:46:35.526Z,35.70
2018-05-08T09:48:38.435Z,35.70
2018-05-08T09:50:41.435Z,35.30
2018-05-08T09:52:44.336Z,35.20
2018-05-08T09:54:48.021Z,35.30
2018-05-08T09:56:51.708Z,35.40
2018-05-08T09:58:54.644Z,35.20
2018-05-08T10:00:57.572Z,35.40
2018-05-08T10:03:00.510Z,35.50
2018-05-08T10:05:03.572Z,35.50
2018-05-08T10:07:07.249Z,35.60
2018-05-08T10:09:10.175Z,35.60
2018-05-08T10:11:13.237Z,36.10
2018-05-08T10:13:16.903Z,35.30
2018-05-08T10:15:21.341Z,35.20
2018-05-08T10:17:25.077Z,35.00
2018-05-08T10:19:27.994Z,34.90
2018-05-08T10:21:30.934Z,34.30
2018-05-08T10:23:34.010Z,33.90
2018-05-08T10:25:36.943Z,34.10
2018-05-08T10:27:39.909Z,34.10
2018-05-08T10:29:43.053Z,34.20
2018-05-08T10:31:46.051Z,34.60
2018-05-08T10:33:48.969Z,34.70
2018-05-08T10:35:52.131Z,34.70
2018-05-08T10:37:55.050Z,34.70
2018-05-08T10:39:57.983Z,34.70
2018-05-08T10:42:01.156Z,34.70
2018-05-08T10:44:04.958Z,34.70
2018-05-08T10:46:08.629Z,34.50
2018-05-08T10:48:11.581Z,34.40
2018-05-08T10:50:14.491Z,34.40
2018-05-08T10:52:17.505Z,34.10
2018-05-08T10:54:21.317Z,34.10
2018-05-08T10:56:24.989Z,34.10
2018-05-08T10:58:27.906Z,34.10
2018-05-08T11:00:31.803Z,34.60
2018-05-08T11:02:35.477Z,34.60
2018-05-08T11:04:39.162Z,34.60
2018-05-08T11:06:42.302Z,34.60
2018-05-08T11:08:45.219Z,34.40
2018-05-08T11:10:48.121Z,34.10
2018-05-08T11:12:51.431Z,34.10
2018-05-08T11:14:55.105Z,34.30
2018-05-08T11:16:59.523Z,34.20
2018-05-08T11:19:02.485Z,34.10
2018-05-08T11:21:05.396Z,34.40
2018-05-08T11:23:09.089Z,34.50
2018-05-08T11:25:12.092Z,34.50
2018-05-08T11:27:15.793Z,34.20
2018-05-08T11:29:19.469Z,34.30
2018-05-08T11:31:23.209Z,34.20
2018-05-08T11:33:26.140Z,34.10
2018-05-08T11:35:29.058Z,34.10
2018-05-08T11:37:33.067Z,34.00
2018-05-08T11:39:36.746Z,34.00
2018-05-08T11:41:39.658Z,33.90
2018-05-08T11:43:42.607Z,33.90
2018-05-08T11:45:45.536Z,34.00
2018-05-08T11:47:48.443Z,34.00
2018-05-08T11:49:51.382Z,33.80
2018-05-08T11:51:54.301Z,33.70
2018-05-08T11:53:57.227Z,33.70
2018-05-08T11:56:00.925Z,33.50
2018-05-08T11:58:04.596Z,32.50
2018-05-08T12:00:09.358Z,33.00
2018-05-08T12:02:12.361Z,32.90
2018-05-08T12:04:15.293Z,32.70
2018-05-08T12:06:18.991Z,32.20
2018-05-08T12:08:21.954Z,32.20
2018-05-08T12:10:24.865Z,32.10
2018-05-08T12:12:27.797Z,32.00
2018-05-08T12:14:30.933Z,31.50
2018-05-08T12:16:33.797Z,31.20
2018-05-08T12:18:36.819Z,31.50
2018-05-08T12:20:40.522Z,31.70
2018-05-08T12:22:43.440Z,31.60
2018-05-08T12:24:46.757Z,31.00
2018-05-08T12:26:50.149Z,30.50
2018-05-08T12:28:53.168Z,30.20
2018-05-08T12:30:56.836Z,33.40
2018-05-08T12:32:59.986Z,33.40
2018-05-08T12:35:02.909Z,34.50
2018-05-08T12:37:05.822Z,35.00
2018-05-08T12:39:09.533Z,34.70
2018-05-08T12:41:12.461Z,34.70
2018-05-08T12:43:16.162Z,34.30
2018-05-08T12:45:19.798Z,34.20
2018-05-08T12:47:23.477Z,33.70
2018-05-08T12:49:26.479Z,33.60
2018-05-08T12:51:30.384Z,33.60
2018-05-08T12:53:34.084Z,33.60
2018-05-08T12:55:37.766Z,33.60
2018-05-08T12:57:42.304Z,33.50
2018-05-08T12:59:45.973Z,33.50
2018-05-08T13:01:48.902Z,33.30
2018-05-08T13:03:51.968Z,33.50
2018-05-08T13:05:55.662Z,33.70
2018-05-08T13:07:59.354Z,33.60
2018-05-08T13:10:03.170Z,33.50
2018-05-08T13:12:06.840Z,33.70
2018-05-08T13:14:09.763Z,33.60
2018-05-08T13:16:13.470Z,32.90
2018-05-08T13:18:16.444Z,32.90
2018-05-08T13:20:20.102Z,32.50
2018-05-08T13:22:23.050Z,32.50
2018-05-08T13:24:26.073Z,32.70
2018-05-08T13:26:28.997Z,32.70
2018-05-08T13:28:33.396Z,32.70
2018-05-08T13:30:37.082Z,32.50
2018-05-08T13:32:40.769Z,32.60
2018-05-08T13:34:44.101Z,32.50
2018-05-08T13:36:47.965Z,33.00
2018-05-08T13:38:50.880Z,32.40
2018-05-08T13:40:53.826Z,32.20
2018-05-08T13:42:56.748Z,32.00
2018-05-08T13:45:00.501Z,31.70
2018-05-08T13:47:03.622Z,31.70
2018-05-08T13:49:07.296Z,31.30
2018-05-08T13:51:10.305Z,31.20
2018-05-08T13:53:14.122Z,31.00
2018-05-08T13:55:17.808Z,30.80
2018-05-08T13:57:21.485Z,30.70
2018-05-08T13:59:25.218Z,30.20
2018-05-08T14:01:28.151Z,30.10
2018-05-08T14:03:31.211Z,30.00
2018-05-08T14:05:34.121Z,29.60
2018-05-08T14:07:37.074Z,29.20
2018-05-08T14:09:39.991Z,28.90
2018-05-08T14:11:42.938Z,28.80
2018-05-08T14:13:45.853Z,28.50
2018-05-08T14:15:48.968Z,28.40
2018-05-08T14:17:52.674Z,28.00
2018-05-08T14:19:56.470Z,27.70
2018-05-08T14:22:00.158Z,27.70
2018-05-08T14:24:04.279Z,27.70
2018-05-08T14:26:08.016Z,27.80
2018-05-08T14:28:11.654Z,27.80
2018-05-08T14:30:14.613Z,27.70
2018-05-08T14:32:17.645Z,27.60
2018-05-08T14:34:21.350Z,27.30
2018-05-08T14:36:24.298Z,27.20
2018-05-08T14:38:27.360Z,27.20
2018-05-08T14:40:30.368Z,27.20
2018-05-08T14:42:33.342Z,27.00
2018-05-08T14:44:36.261Z,27.00
2018-05-08T14:46:39.926Z,26.80
2018-05-08T14:48:43.775Z,26.80
2018-05-08T14:50:46.693Z,26.60
2018-05-08T14:52:49.610Z,26.60
2018-05-08T14:54:53.428Z,26.90
2018-05-08T14:56:57.110Z,26.90
2018-05-08T14:59:00.789Z,27.30
2018-05-08T15:01:03.835Z,27.10
2018-05-08T15:03:06.756Z,26.80
2018-05-08T15:05:09.779Z,26.50
2018-05-08T15:07:13.622Z,26.30
2018-05-08T15:09:16.533Z,26.20
2018-05-08T15:11:19.545Z,26.10
2018-05-08T15:13:23.351Z,26.10
2018-05-08T15:15:27.029Z,26.10
2018-05-08T15:17:29.953Z,26.00
2018-05-08T15:19:32.893Z,26.00
2018-05-08T15:21:35.894Z,26.00
2018-05-08T15:23:39.582Z,26.10
2018-05-08T15:25:43.294Z,26.10
2018-05-08T15:27:47.097Z,25.90
2018-05-08T15:29:50.809Z,25.80
2018-05-08T15:31:53.762Z,25.70
2018-05-08T15:33:57.454Z,26.20
2018-05-08T15:36:01.139Z,25.60
2018-05-08T15:38:04.141Z,25.50
2018-05-08T15:40:07.057Z,25.50
2018-05-08T15:42:09.981Z,25.30
2018-05-08T15:44:13.233Z,25.20
2018-05-08T15:46:16.161Z,25.20
2018-05-08T15:48:20.594Z,25.30
2018-05-08T15:50:24.354Z,24.70
2018-05-08T15:52:27.259Z,25.10
2018-05-08T15:54:30.238Z,25.10
2018-05-08T15:56:33.177Z,25.00
2018-05-08T15:58:36.097Z,25.00
2018-05-08T16:00:39.020Z,25.00
2018-05-08T16:02:42.823Z,25.10
2018-05-08T16:04:46.493Z,25.10
2018-05-08T16:06:49.410Z,25.00
2018-05-08T16:08:52.825Z,25.00
2018-05-08T16:10:55.745Z,24.90
2018-05-08T16:12:58.762Z,24.90
2018-05-08T16:15:02.578Z,24.80
2018-05-08T16:17:05.494Z,24.80
2018-05-08T16:19:08.431Z,24.70
2018-05-08T16:21:12.435Z,24.80
2018-05-08T16:23:16.110Z,24.90
2018-05-08T16:25:19.119Z,24.80
2018-05-08T16:27:22.942Z,25.60
2018-05-08T16:29:25.849Z,25.10
2018-05-08T16:31:28.769Z,25.10
2018-05-08T16:33:31.716Z,25.20
2018-05-08T16:35:34.625Z,25.30
2018-05-08T16:37:38.425Z,25.40
2018-05-08T16:39:41.379Z,25.00
2018-05-08T16:41:44.287Z,25.00
2018-05-08T16:43:47.297Z,24.80
2018-05-08T16:45:51.010Z,24.40
2018-05-08T16:47:53.921Z,24.30
2018-05-08T16:49:56.863Z,24.10
2018-05-08T16:52:01.095Z,24.10
2018-05-08T16:54:04.113Z,24.10
2018-05-08T16:56:06.947Z,24.10
2018-05-08T16:58:10.653Z,24.30
2018-05-08T17:00:13.576Z,24.20
2018-05-08T17:02:16.601Z,24.30
2018-05-08T17:04:20.406Z,24.50
2018-05-08T17:06:24.090Z,24.50
2018-05-08T17:08:27.086Z,24.50
2018-05-08T17:10:31.607Z,24.40
2018-05-08T17:12:34.437Z,24.40
2018-05-08T17:14:37.347Z,24.50
2018-05-08T17:16:40.289Z,24.50
2018-05-08T17:18:43.333Z,24.60
2018-05-08T17:20:47.009Z,24.70
2018-05-08T17:22:50.048Z,24.70
2018-05-08T17:24:52.978Z,24.70
2018-05-08T17:26:55.889Z,24.70
2018-05-08T17:28:58.964Z,24.60
2018-05-08T17:31:02.638Z,24.70
2018-05-08T17:33:06.346Z,24.80
2018-05-08T17:35:10.073Z,24.80
2018-05-08T17:37:13.005Z,24.70
2018-05-08T17:39:16.030Z,24.70
2018-05-08T17:41:20.039Z,24.90
2018-05-08T17:43:23.709Z,25.00
2018-05-08T17:45:26.637Z,25.00
2018-05-08T17:47:29.600Z,25.00
2018-05-08T17:49:33.281Z,25.20
2018-05-08T17:51:36.971Z,25.10
2018-05-08T17:53:39.922Z,25.20
2018-05-08T17:55:42.838Z,25.30
2018-05-08T17:57:47.366Z,25.40
2018-05-08T17:59:50.679Z,25.40
2018-05-08T18:01:54.372Z,25.50
2018-05-08T18:03:58.089Z,25.60
2018-05-08T18:06:02.079Z,25.70
2018-05-08T18:08:05.778Z,25.90
2018-05-08T18:10:09.449Z,26.10
2018-05-08T18:12:13.924Z,26.30
2018-05-08T18:14:16.853Z,26.20
2018-05-08T18:16:19.862Z,26.40
2018-05-08T18:18:23.993Z,26.80
2018-05-08T18:20:26.926Z,26.80
2018-05-08T18:22:29.854Z,27.00
2018-05-08T18:24:33.242Z,27.00
2018-05-08T18:26:36.167Z,27.10
2018-05-08T18:28:39.196Z,27.30
2018-05-08T18:30:42.914Z,27.70
2018-05-08T18:32:45.842Z,27.70
2018-05-08T18:34:48.770Z,27.80
2018-05-08T18:36:52.676Z,28.40
2018-05-08T18:38:55.595Z,28.40
2018-05-08T18:40:58.523Z,28.40
2018-05-08T18:43:02.458Z,28.60
2018-05-08T18:45:05.369Z,28.50
2018-05-08T18:47:08.296Z,28.60
2018-05-08T18:49:12.007Z,29.00
2018-05-08T18:51:14.918Z,28.90
2018-05-08T18:53:17.838Z,29.00
2018-05-08T18:55:21.759Z,29.30
2018-05-08T18:57:25.440Z,29.50
2018-05-08T18:59:28.399Z,29.50
2018-05-08T19:01:31.425Z,29.70
2018-05-08T19:03:35.141Z,30.00
2018-05-08T19:05:38.810Z,30.10
2018-05-08T19:07:42.642Z,30.60
2018-05-08T19:09:45.557Z,30.40
2018-05-08T19:11:48.473Z,30.80
2018-05-08T19:13:52.926Z,31.30
2018-05-08T19:16:01.399Z,31.30
2018-05-08T19:18:04.403Z,31.60
2018-05-08T19:20:08.114Z,31.90
2018-05-08T19:22:12.593Z,32.10
2018-05-08T19:24:21.261Z,32.00
2018-05-08T19:26:24.471Z,32.10
2018-05-08T19:28:33.101Z,32.30
2018-05-08T19:30:36.045Z,32.60
2018-05-08T19:32:38.993Z,32.80
2018-05-08T19:34:48.353Z,33.10
2018-05-08T19:37:07.938Z,33.10
2018-05-08T19:39:11.085Z,33.20
2018-05-08T19:41:13.932Z,33.30
2018-05-08T19:43:17.781Z,33.70
2018-05-08T19:45:21.600Z,33.80
2018-05-08T19:47:24.556Z,33.80
2018-05-08T19:49:27.494Z,33.70
2018-05-08T19:51:30.535Z,33.80
2018-05-08T19:53:34.234Z,33.90
2018-05-08T19:55:38.037Z,34.00
2018-05-08T19:57:41.939Z,34.10
2018-05-08T19:59:45.619Z,34.20
2018-05-08T20:01:48.574Z,34.10
2018-05-08T20:03:52.014Z,34.20
2018-05-08T20:05:55.703Z,34.30
2018-05-08T20:07:59.381Z,34.40
2018-05-08T20:10:02.333Z,34.30
2018-05-08T20:12:05.254Z,34.40
2018-05-08T20:14:08.178Z,34.40
2018-05-08T20:16:11.355Z,34.50
2018-05-08T20:18:14.278Z,34.50
2018-05-08T20:20:17.192Z,34.80
2018-05-08T20:22:20.922Z,35.60
2018-05-08T20:24:23.869Z,35.20
2018-05-08T20:26:26.905Z,35.30
2018-05-08T20:28:29.963Z,35.50
2018-05-08T20:30:32.952Z,35.60
2018-05-08T20:32:36.643Z,35.70
2018-05-08T20:34:40.340Z,35.80
2018-05-08T20:36:44.025Z,35.90
2018-05-08T20:38:47.719Z,36.30
2018-05-08T20:40:52.579Z,36.10
2018-05-08T20:42:55.500Z,36.10
2018-05-08T20:44:58.432Z,36.30
2018-05-08T20:47:02.193Z,36.50
2018-05-08T20:49:05.159Z,36.40
2018-05-08T20:51:08.054Z,36.60
2018-05-08T20:53:11.004Z,36.80
2018-05-08T20:55:14.064Z,37.00
2018-05-08T20:57:17.735Z,37.30
2018-05-08T20:59:20.690Z,37.30
2018-05-08T21:01:23.644Z,37.40
2018-05-08T21:03:26.568Z,37.70
2018-05-08T21:05:31.129Z,38.10
2018-05-08T21:07:34.802Z,38.20
2018-05-08T21:09:37.814Z,38.20
2018-05-08T21:11:41.721Z,39.20
2018-05-08T21:13:45.394Z,38.60
2018-05-08T21:15:48.301Z,38.50
2018-05-08T21:17:52.339Z,38.90
2018-05-08T21:19:55.288Z,38.80
2018-05-08T21:21:58.965Z,38.90
2018-05-08T21:24:01.913Z,38.90
2018-05-08T21:26:05.334Z,38.90
2018-05-08T21:28:13.811Z,38.80
2018-05-08T21:30:22.546Z,38.80
2018-05-08T21:32:25.463Z,39.00
2018-05-08T21:34:29.144Z,39.10
2018-05-08T21:36:32.105Z,39.00
2018-05-08T21:38:35.014Z,39.00
2018-05-08T21:40:39.437Z,39.20
2018-05-08T21:42:43.902Z,39.40
2018-05-08T21:44:46.818Z,39.40
2018-05-08T21:46:49.734Z,39.50
2018-05-08T21:48:53.454Z,39.40
2018-05-08T21:50:56.385Z,39.30
2018-05-08T21:52:59.423Z,39.30
2018-05-08T21:55:02.508Z,39.30
2018-05-08T21:57:05.570Z,39.40
2018-05-08T21:59:09.254Z,39.50
2018-05-08T22:01:12.211Z,39.40
2018-05-08T22:03:15.137Z,39.40
2018-05-08T22:05:18.837Z,39.60
2018-05-08T22:07:22.973Z,39.50
2018-05-08T22:09:25.925Z,39.40
2018-05-08T22:11:28.854Z,39.50
2018-05-08T22:13:31.803Z,39.60
2018-05-08T22:15:34.753Z,39.60
2018-05-08T22:17:38.446Z,39.40
2018-05-08T22:19:41.428Z,39.30
2018-05-08T22:21:45.116Z,39.60
2018-05-08T22:23:48.481Z,39.50
2018-05-08T22:25:51.534Z,39.40
2018-05-08T22:27:55.742Z,39.40
2018-05-08T22:29:59.410Z,39.30
2018-05-08T22:32:03.986Z,39.30
2018-05-08T22:34:06.909Z,39.30
2018-05-08T22:36:09.839Z,39.20
2018-05-08T22:38:13.015Z,39.20
2018-05-08T22:40:16.750Z,39.30
2018-05-08T22:42:19.629Z,39.30
2018-05-08T22:44:22.589Z,39.30
2018-05-08T22:46:25.505Z,39.20
2018-05-08T22:48:28.541Z,39.30
2018-05-08T22:50:32.346Z,39.20
2018-05-08T22:52:35.347Z,39.20
2018-05-08T22:54:38.273Z,39.20
2018-05-08T22:58:45.897Z,39.10
2018-05-08T23:00:49.663Z,39.10
2018-05-08T23:02:53.331Z,39.00
2018-05-08T23:04:56.242Z,38.90
2018-05-08T23:06:59.279Z,38.90
2018-05-08T23:09:03.539Z,38.80
2018-05-08T23:11:06.671Z,38.70
2018-05-08T23:13:10.294Z,38.60
2018-05-08T23:15:13.501Z,38.60
2018-05-08T23:17:16.474Z,38.50
2018-05-08T23:19:19.400Z,38.40
2018-05-08T23:21:23.863Z,38.30
2018-05-08T23:23:26.781Z,38.30
2018-05-08T23:25:29.710Z,38.20
2018-05-08T23:27:33.537Z,38.10
2018-05-08T23:29:36.465Z,38.10
2018-05-08T23:31:39.389Z,38.10
2018-05-08T23:33:42.354Z,38.10
2018-05-08T23:35:46.051Z,38.00
2018-05-08T23:37:49.733Z,38.00
2018-05-08T23:39:52.741Z,37.80
2018-05-08T23:41:55.725Z,37.80
2018-05-08T23:43:59.401Z,37.70
2018-05-08T23:46:03.868Z,37.60
2018-05-08T23:48:06.783Z,37.50
2018-05-08T23:50:09.767Z,37.40
2018-05-08T23:52:12.805Z,37.40
2018-05-08T23:54:15.763Z,37.30
2018-05-08T23:56:18.708Z,37.20
2018-05-08T23:58:21.945Z,37.20
